sensor_id;sensor_type;location;lat;lon;timestamp;P1;durP1;ratioP1;P2;durP2;ratioP2
22260;SDS011;11299;43.202;27.920;2023-05-07T00:00:04;2.67;;;1.70;;
22260;SDS011;11299;43.202;27.920;2023-05-07T00:02:33;2.83;;;2.03;;
22260;SDS011;11299;43.202;27.920;2023-05-07T00:04:58;4.43;;;2.38;;
22260;SDS011;11299;43.202;27.920;2023-05-07T00:07:23;3.22;;;2.17;;
22260;SDS011;11299;43.202;27.920;2023-05-07T00:09:49;5.00;;;2.17;;
22260;SDS011;11299;43.202;27.920;2023-05-07T00:12:14;7.28;;;2.20;;
22260;SDS011;11299;43.202;27.920;2023-05-07T00:14:40;3.78;;;2.17;;
22260;SDS011;11299;43.202;27.920;2023-05-07T00:17:06;6.25;;;2.55;;
22260;SDS011;11299;43.202;27.920;2023-05-07T00:19:31;5.05;;;2.10;;
22260;SDS011;11299;43.202;27.920;2023-05-07T00:21:57;9.00;;;2.55;;
22260;SDS011;11299;43.202;27.920;2023-05-07T00:24:23;4.68;;;2.00;;
22260;SDS011;11299;43.202;27.920;2023-05-07T00:26:49;5.07;;;2.17;;
22260;SDS011;11299;43.202;27.920;2023-05-07T00:29:14;5.38;;;2.35;;
22260;SDS011;11299;43.202;27.920;2023-05-07T00:31:40;5.82;;;2.33;;
22260;SDS011;11299;43.202;27.920;2023-05-07T00:34:05;7.22;;;2.40;;
22260;SDS011;11299;43.202;27.920;2023-05-07T00:36:31;4.65;;;2.30;;
22260;SDS011;11299;43.202;27.920;2023-05-07T00:38:58;4.78;;;2.35;;
22260;SDS011;11299;43.202;27.920;2023-05-07T00:41:25;5.57;;;2.20;;
22260;SDS011;11299;43.202;27.920;2023-05-07T00:43:51;5.43;;;2.30;;
22260;SDS011;11299;43.202;27.920;2023-05-07T00:46:17;5.00;;;2.22;;
22260;SDS011;11299;43.202;27.920;2023-05-07T00:48:44;3.67;;;2.10;;
22260;SDS011;11299;43.202;27.920;2023-05-07T00:51:10;4.63;;;2.20;;
22260;SDS011;11299;43.202;27.920;2023-05-07T00:53:36;5.70;;;2.53;;
22260;SDS011;11299;43.202;27.920;2023-05-07T00:56:02;7.90;;;2.50;;
22260;SDS011;11299;43.202;27.920;2023-05-07T00:58:28;4.03;;;2.42;;
22260;SDS011;11299;43.202;27.920;2023-05-07T01:00:53;6.45;;;2.75;;
22260;SDS011;11299;43.202;27.920;2023-05-07T01:03:19;5.20;;;2.60;;
22260;SDS011;11299;43.202;27.920;2023-05-07T01:05:44;6.72;;;2.70;;
22260;SDS011;11299;43.202;27.920;2023-05-07T01:08:11;4.93;;;2.28;;
22260;SDS011;11299;43.202;27.920;2023-05-07T01:10:37;8.27;;;2.78;;
22260;SDS011;11299;43.202;27.920;2023-05-07T01:13:07;4.53;;;2.60;;
22260;SDS011;11299;43.202;27.920;2023-05-07T01:15:35;5.88;;;2.60;;
22260;SDS011;11299;43.202;27.920;2023-05-07T01:18:01;5.13;;;2.30;;
22260;SDS011;11299;43.202;27.920;2023-05-07T01:20:26;5.53;;;2.88;;
22260;SDS011;11299;43.202;27.920;2023-05-07T01:22:53;8.55;;;2.65;;
22260;SDS011;11299;43.202;27.920;2023-05-07T01:25:19;7.15;;;2.63;;
22260;SDS011;11299;43.202;27.920;2023-05-07T01:27:44;4.68;;;2.53;;
22260;SDS011;11299;43.202;27.920;2023-05-07T01:30:10;7.97;;;2.40;;
22260;SDS011;11299;43.202;27.920;2023-05-07T01:35:06;8.18;;;2.47;;
22260;SDS011;11299;43.202;27.920;2023-05-07T01:37:34;6.53;;;2.60;;
22260;SDS011;11299;43.202;27.920;2023-05-07T01:40:01;5.38;;;2.78;;
22260;SDS011;11299;43.202;27.920;2023-05-07T01:42:27;5.60;;;2.35;;
22260;SDS011;11299;43.202;27.920;2023-05-07T01:44:54;6.65;;;2.60;;
22260;SDS011;11299;43.202;27.920;2023-05-07T01:47:20;4.22;;;2.63;;
22260;SDS011;11299;43.202;27.920;2023-05-07T01:49:46;8.80;;;2.47;;
22260;SDS011;11299;43.202;27.920;2023-05-07T01:52:12;5.20;;;2.80;;
22260;SDS011;11299;43.202;27.920;2023-05-07T01:54:37;5.28;;;2.65;;
22260;SDS011;11299;43.202;27.920;2023-05-07T01:57:03;4.80;;;2.90;;
22260;SDS011;11299;43.202;27.920;2023-05-07T01:59:28;6.63;;;2.78;;
22260;SDS011;11299;43.202;27.920;2023-05-07T02:01:54;5.88;;;2.45;;
22260;SDS011;11299;43.202;27.920;2023-05-07T02:04:19;6.45;;;2.72;;
22260;SDS011;11299;43.202;27.920;2023-05-07T02:06:45;4.60;;;2.80;;
22260;SDS011;11299;43.202;27.920;2023-05-07T02:09:11;7.50;;;2.70;;
22260;SDS011;11299;43.202;27.920;2023-05-07T02:11:36;6.28;;;2.90;;
22260;SDS011;11299;43.202;27.920;2023-05-07T02:14:02;4.28;;;1.90;;
22260;SDS011;11299;43.202;27.920;2023-05-07T02:16:27;4.65;;;2.30;;
22260;SDS011;11299;43.202;27.920;2023-05-07T02:18:53;5.20;;;2.42;;
22260;SDS011;11299;43.202;27.920;2023-05-07T02:21:18;4.85;;;2.30;;
22260;SDS011;11299;43.202;27.920;2023-05-07T02:23:44;6.22;;;2.63;;
22260;SDS011;11299;43.202;27.920;2023-05-07T02:26:10;7.78;;;2.30;;
22260;SDS011;11299;43.202;27.920;2023-05-07T02:28:36;5.30;;;2.00;;
22260;SDS011;11299;43.202;27.920;2023-05-07T02:31:04;4.75;;;2.20;;
22260;SDS011;11299;43.202;27.920;2023-05-07T02:33:30;6.32;;;2.38;;
22260;SDS011;11299;43.202;27.920;2023-05-07T02:35:55;6.60;;;2.20;;
22260;SDS011;11299;43.202;27.920;2023-05-07T02:38:21;8.18;;;2.13;;
22260;SDS011;11299;43.202;27.920;2023-05-07T02:40:47;4.90;;;1.95;;
22260;SDS011;11299;43.202;27.920;2023-05-07T02:43:12;5.75;;;2.15;;
22260;SDS011;11299;43.202;27.920;2023-05-07T02:45:38;8.80;;;2.70;;
22260;SDS011;11299;43.202;27.920;2023-05-07T02:48:04;5.45;;;2.70;;
22260;SDS011;11299;43.202;27.920;2023-05-07T02:50:31;5.93;;;2.20;;
22260;SDS011;11299;43.202;27.920;2023-05-07T02:52:57;5.97;;;2.20;;
22260;SDS011;11299;43.202;27.920;2023-05-07T02:55:23;4.20;;;2.38;;
22260;SDS011;11299;43.202;27.920;2023-05-07T02:57:48;5.78;;;2.13;;
22260;SDS011;11299;43.202;27.920;2023-05-07T03:00:14;3.80;;;1.98;;
22260;SDS011;11299;43.202;27.920;2023-05-07T03:02:41;5.97;;;2.65;;
22260;SDS011;11299;43.202;27.920;2023-05-07T03:05:07;7.03;;;2.05;;
22260;SDS011;11299;43.202;27.920;2023-05-07T03:07:33;7.20;;;2.05;;
22260;SDS011;11299;43.202;27.920;2023-05-07T03:09:59;4.43;;;2.00;;
22260;SDS011;11299;43.202;27.920;2023-05-07T03:12:25;6.75;;;2.45;;
22260;SDS011;11299;43.202;27.920;2023-05-07T03:14:50;3.53;;;2.00;;
22260;SDS011;11299;43.202;27.920;2023-05-07T03:17:16;4.20;;;1.92;;
22260;SDS011;11299;43.202;27.920;2023-05-07T03:19:41;5.07;;;2.15;;
22260;SDS011;11299;43.202;27.920;2023-05-07T03:22:07;5.20;;;1.77;;
22260;SDS011;11299;43.202;27.920;2023-05-07T03:24:32;5.95;;;2.45;;
22260;SDS011;11299;43.202;27.920;2023-05-07T03:26:57;8.13;;;2.80;;
22260;SDS011;11299;43.202;27.920;2023-05-07T03:29:23;4.63;;;2.38;;
22260;SDS011;11299;43.202;27.920;2023-05-07T03:31:48;7.68;;;2.45;;
22260;SDS011;11299;43.202;27.920;2023-05-07T03:34:14;5.03;;;2.08;;
22260;SDS011;11299;43.202;27.920;2023-05-07T03:36:42;7.93;;;2.50;;
22260;SDS011;11299;43.202;27.920;2023-05-07T03:39:07;6.65;;;2.40;;
22260;SDS011;11299;43.202;27.920;2023-05-07T03:41:33;5.90;;;2.83;;
22260;SDS011;11299;43.202;27.920;2023-05-07T03:43:58;9.90;;;2.35;;
22260;SDS011;11299;43.202;27.920;2023-05-07T03:46:24;4.63;;;2.30;;
22260;SDS011;11299;43.202;27.920;2023-05-07T03:48:51;8.30;;;2.65;;
22260;SDS011;11299;43.202;27.920;2023-05-07T03:51:17;4.55;;;2.53;;
22260;SDS011;11299;43.202;27.920;2023-05-07T03:53:42;5.65;;;2.38;;
22260;SDS011;11299;43.202;27.920;2023-05-07T03:56:07;4.70;;;2.10;;
22260;SDS011;11299;43.202;27.920;2023-05-07T03:58:33;5.70;;;2.17;;
22260;SDS011;11299;43.202;27.920;2023-05-07T04:00:58;6.50;;;3.05;;
22260;SDS011;11299;43.202;27.920;2023-05-07T04:03:24;8.43;;;3.17;;
22260;SDS011;11299;43.202;27.920;2023-05-07T04:05:49;10.68;;;3.40;;
22260;SDS011;11299;43.202;27.920;2023-05-07T04:08:15;4.35;;;2.35;;
22260;SDS011;11299;43.202;27.920;2023-05-07T04:10:40;5.35;;;2.13;;
22260;SDS011;11299;43.202;27.920;2023-05-07T04:13:06;5.90;;;2.40;;
22260;SDS011;11299;43.202;27.920;2023-05-07T04:15:31;4.25;;;2.35;;
22260;SDS011;11299;43.202;27.920;2023-05-07T04:17:57;6.97;;;2.78;;
22260;SDS011;11299;43.202;27.920;2023-05-07T04:20:22;5.90;;;2.42;;
22260;SDS011;11299;43.202;27.920;2023-05-07T04:22:48;5.15;;;2.25;;
22260;SDS011;11299;43.202;27.920;2023-05-07T04:25:13;5.10;;;2.00;;
22260;SDS011;11299;43.202;27.920;2023-05-07T04:27:41;6.25;;;2.35;;
22260;SDS011;11299;43.202;27.920;2023-05-07T04:30:06;7.35;;;2.35;;
22260;SDS011;11299;43.202;27.920;2023-05-07T04:32:32;9.45;;;2.97;;
22260;SDS011;11299;43.202;27.920;2023-05-07T04:34:58;4.70;;;2.20;;
22260;SDS011;11299;43.202;27.920;2023-05-07T04:37:25;5.18;;;2.20;;
22260;SDS011;11299;43.202;27.920;2023-05-07T04:39:50;6.20;;;2.22;;
22260;SDS011;11299;43.202;27.920;2023-05-07T04:42:16;8.20;;;2.30;;
22260;SDS011;11299;43.202;27.920;2023-05-07T04:44:43;8.60;;;2.53;;
22260;SDS011;11299;43.202;27.920;2023-05-07T04:47:09;5.15;;;2.30;;
22260;SDS011;11299;43.202;27.920;2023-05-07T04:49:35;5.55;;;2.38;;
22260;SDS011;11299;43.202;27.920;2023-05-07T04:52:01;10.30;;;2.45;;
22260;SDS011;11299;43.202;27.920;2023-05-07T04:54:26;6.30;;;2.50;;
22260;SDS011;11299;43.202;27.920;2023-05-07T04:56:52;8.52;;;2.20;;
22260;SDS011;11299;43.202;27.920;2023-05-07T04:59:17;7.28;;;2.58;;
22260;SDS011;11299;43.202;27.920;2023-05-07T05:01:43;9.35;;;4.75;;
22260;SDS011;11299;43.202;27.920;2023-05-07T05:04:08;5.55;;;2.47;;
22260;SDS011;11299;43.202;27.920;2023-05-07T05:06:34;6.80;;;2.30;;
22260;SDS011;11299;43.202;27.920;2023-05-07T05:08:59;4.95;;;2.13;;
22260;SDS011;11299;43.202;27.920;2023-05-07T05:11:24;4.30;;;2.00;;
22260;SDS011;11299;43.202;27.920;2023-05-07T05:13:50;7.38;;;2.50;;
22260;SDS011;11299;43.202;27.920;2023-05-07T05:16:16;5.60;;;2.35;;
22260;SDS011;11299;43.202;27.920;2023-05-07T05:18:41;3.08;;;2.22;;
22260;SDS011;11299;43.202;27.920;2023-05-07T05:21:07;6.00;;;2.40;;
22260;SDS011;11299;43.202;27.920;2023-05-07T05:23:32;5.72;;;2.75;;
22260;SDS011;11299;43.202;27.920;2023-05-07T05:25:58;4.88;;;2.25;;
22260;SDS011;11299;43.202;27.920;2023-05-07T05:28:23;5.45;;;2.30;;
22260;SDS011;11299;43.202;27.920;2023-05-07T05:30:49;4.53;;;2.20;;
22260;SDS011;11299;43.202;27.920;2023-05-07T05:33:15;6.70;;;2.15;;
22260;SDS011;11299;43.202;27.920;2023-05-07T05:35:41;4.97;;;2.33;;
22260;SDS011;11299;43.202;27.920;2023-05-07T05:38:06;4.65;;;1.98;;
22260;SDS011;11299;43.202;27.920;2023-05-07T05:40:32;5.47;;;2.40;;
22260;SDS011;11299;43.202;27.920;2023-05-07T05:42:58;5.65;;;1.92;;
22260;SDS011;11299;43.202;27.920;2023-05-07T05:45:24;4.28;;;1.90;;
22260;SDS011;11299;43.202;27.920;2023-05-07T05:47:50;7.40;;;3.67;;
22260;SDS011;11299;43.202;27.920;2023-05-07T05:50:15;10.48;;;4.53;;
22260;SDS011;11299;43.202;27.920;2023-05-07T05:52:41;5.65;;;2.70;;
22260;SDS011;11299;43.202;27.920;2023-05-07T05:55:07;4.30;;;1.92;;
22260;SDS011;11299;43.202;27.920;2023-05-07T05:57:33;4.78;;;2.35;;
22260;SDS011;11299;43.202;27.920;2023-05-07T05:59:59;9.05;;;3.03;;
22260;SDS011;11299;43.202;27.920;2023-05-07T06:02:26;5.72;;;2.58;;
22260;SDS011;11299;43.202;27.920;2023-05-07T06:04:51;6.95;;;2.58;;
22260;SDS011;11299;43.202;27.920;2023-05-07T06:07:16;8.55;;;2.38;;
22260;SDS011;11299;43.202;27.920;2023-05-07T06:09:42;7.80;;;2.55;;
22260;SDS011;11299;43.202;27.920;2023-05-07T06:12:07;5.32;;;2.50;;
22260;SDS011;11299;43.202;27.920;2023-05-07T06:14:32;10.85;;;3.60;;
22260;SDS011;11299;43.202;27.920;2023-05-07T06:16:58;4.47;;;2.60;;
22260;SDS011;11299;43.202;27.920;2023-05-07T06:19:23;3.20;;;2.00;;
22260;SDS011;11299;43.202;27.920;2023-05-07T06:21:51;4.18;;;2.05;;
22260;SDS011;11299;43.202;27.920;2023-05-07T06:24:17;5.40;;;1.92;;
22260;SDS011;11299;43.202;27.920;2023-05-07T06:26:42;9.48;;;4.03;;
22260;SDS011;11299;43.202;27.920;2023-05-07T06:29:07;8.57;;;2.75;;
22260;SDS011;11299;43.202;27.920;2023-05-07T06:31:33;4.00;;;2.08;;
22260;SDS011;11299;43.202;27.920;2023-05-07T06:33:58;4.85;;;2.30;;
22260;SDS011;11299;43.202;27.920;2023-05-07T06:36:24;4.65;;;2.40;;
22260;SDS011;11299;43.202;27.920;2023-05-07T06:38:49;6.40;;;2.42;;
22260;SDS011;11299;43.202;27.920;2023-05-07T06:41:15;8.88;;;3.83;;
22260;SDS011;11299;43.202;27.920;2023-05-07T06:43:40;7.38;;;2.28;;
22260;SDS011;11299;43.202;27.920;2023-05-07T06:46:06;5.40;;;2.10;;
22260;SDS011;11299;43.202;27.920;2023-05-07T06:48:32;7.57;;;2.25;;
22260;SDS011;11299;43.202;27.920;2023-05-07T06:50:57;5.68;;;2.53;;
22260;SDS011;11299;43.202;27.920;2023-05-07T06:53:23;5.70;;;2.30;;
22260;SDS011;11299;43.202;27.920;2023-05-07T06:55:49;3.83;;;2.28;;
22260;SDS011;11299;43.202;27.920;2023-05-07T06:58:14;4.55;;;2.40;;
22260;SDS011;11299;43.202;27.920;2023-05-07T07:00:40;3.47;;;1.95;;
22260;SDS011;11299;43.202;27.920;2023-05-07T07:03:06;3.60;;;2.05;;
22260;SDS011;11299;43.202;27.920;2023-05-07T07:05:31;5.10;;;2.55;;
22260;SDS011;11299;43.202;27.920;2023-05-07T07:07:57;4.78;;;2.50;;
22260;SDS011;11299;43.202;27.920;2023-05-07T07:10:23;4.93;;;2.40;;
22260;SDS011;11299;43.202;27.920;2023-05-07T07:12:48;5.72;;;2.25;;
22260;SDS011;11299;43.202;27.920;2023-05-07T07:15:15;6.32;;;2.08;;
22260;SDS011;11299;43.202;27.920;2023-05-07T07:17:41;4.18;;;2.33;;
22260;SDS011;11299;43.202;27.920;2023-05-07T07:20:06;8.05;;;2.65;;
22260;SDS011;11299;43.202;27.920;2023-05-07T07:22:32;5.45;;;3.13;;
22260;SDS011;11299;43.202;27.920;2023-05-07T07:24:58;4.82;;;2.20;;
22260;SDS011;11299;43.202;27.920;2023-05-07T07:27:23;4.57;;;2.17;;
22260;SDS011;11299;43.202;27.920;2023-05-07T07:29:49;6.00;;;2.45;;
22260;SDS011;11299;43.202;27.920;2023-05-07T07:32:15;5.47;;;1.92;;
22260;SDS011;11299;43.202;27.920;2023-05-07T07:34:40;4.90;;;2.00;;
22260;SDS011;11299;43.202;27.920;2023-05-07T07:37:06;7.30;;;2.65;;
22260;SDS011;11299;43.202;27.920;2023-05-07T07:39:32;6.25;;;2.40;;
22260;SDS011;11299;43.202;27.920;2023-05-07T07:41:58;6.18;;;2.55;;
22260;SDS011;11299;43.202;27.920;2023-05-07T07:44:23;4.65;;;2.28;;
22260;SDS011;11299;43.202;27.920;2023-05-07T07:46:49;6.15;;;2.35;;
22260;SDS011;11299;43.202;27.920;2023-05-07T07:49:15;6.72;;;2.45;;
22260;SDS011;11299;43.202;27.920;2023-05-07T07:51:41;5.70;;;2.40;;
22260;SDS011;11299;43.202;27.920;2023-05-07T07:54:07;7.72;;;2.80;;
22260;SDS011;11299;43.202;27.920;2023-05-07T07:56:32;5.43;;;2.35;;
22260;SDS011;11299;43.202;27.920;2023-05-07T07:58:59;5.75;;;2.60;;
22260;SDS011;11299;43.202;27.920;2023-05-07T08:01:24;4.20;;;2.72;;
22260;SDS011;11299;43.202;27.920;2023-05-07T08:03:51;6.63;;;2.45;;
22260;SDS011;11299;43.202;27.920;2023-05-07T08:06:16;8.50;;;2.55;;
22260;SDS011;11299;43.202;27.920;2023-05-07T08:08:42;5.60;;;2.30;;
22260;SDS011;11299;43.202;27.920;2023-05-07T08:11:07;7.85;;;2.42;;
22260;SDS011;11299;43.202;27.920;2023-05-07T08:13:32;8.13;;;2.95;;
22260;SDS011;11299;43.202;27.920;2023-05-07T08:15:58;7.57;;;2.53;;
22260;SDS011;11299;43.202;27.920;2023-05-07T08:18:24;4.53;;;2.38;;
22260;SDS011;11299;43.202;27.920;2023-05-07T08:20:50;8.57;;;3.00;;
22260;SDS011;11299;43.202;27.920;2023-05-07T08:23:16;6.30;;;2.47;;
22260;SDS011;11299;43.202;27.920;2023-05-07T08:25:41;4.05;;;2.55;;
22260;SDS011;11299;43.202;27.920;2023-05-07T08:28:10;4.88;;;2.65;;
22260;SDS011;11299;43.202;27.920;2023-05-07T08:30:35;5.80;;;2.55;;
22260;SDS011;11299;43.202;27.920;2023-05-07T08:33:01;6.10;;;2.25;;
22260;SDS011;11299;43.202;27.920;2023-05-07T08:35:26;5.22;;;2.20;;
22260;SDS011;11299;43.202;27.920;2023-05-07T08:37:53;4.40;;;2.47;;
22260;SDS011;11299;43.202;27.920;2023-05-07T08:40:18;6.32;;;2.80;;
22260;SDS011;11299;43.202;27.920;2023-05-07T08:42:44;5.00;;;2.53;;
22260;SDS011;11299;43.202;27.920;2023-05-07T08:45:11;6.28;;;2.50;;
22260;SDS011;11299;43.202;27.920;2023-05-07T08:47:43;6.72;;;2.75;;
22260;SDS011;11299;43.202;27.920;2023-05-07T08:50:11;5.38;;;2.75;;
22260;SDS011;11299;43.202;27.920;2023-05-07T08:52:36;4.85;;;2.53;;
22260;SDS011;11299;43.202;27.920;2023-05-07T08:55:02;6.68;;;2.50;;
22260;SDS011;11299;43.202;27.920;2023-05-07T08:57:28;7.30;;;3.00;;
22260;SDS011;11299;43.202;27.920;2023-05-07T08:59:54;5.43;;;2.85;;
22260;SDS011;11299;43.202;27.920;2023-05-07T09:02:20;5.32;;;2.67;;
22260;SDS011;11299;43.202;27.920;2023-05-07T09:04:45;5.40;;;2.40;;
22260;SDS011;11299;43.202;27.920;2023-05-07T09:07:11;6.43;;;2.85;;
22260;SDS011;11299;43.202;27.920;2023-05-07T09:09:36;7.15;;;2.70;;
22260;SDS011;11299;43.202;27.920;2023-05-07T09:12:03;8.10;;;2.60;;
22260;SDS011;11299;43.202;27.920;2023-05-07T09:14:29;6.18;;;2.50;;
22260;SDS011;11299;43.202;27.920;2023-05-07T09:16:56;4.22;;;2.15;;
22260;SDS011;11299;43.202;27.920;2023-05-07T09:19:25;8.25;;;2.92;;
22260;SDS011;11299;43.202;27.920;2023-05-07T09:22:24;6.60;;;2.40;;
22260;SDS011;11299;43.202;27.920;2023-05-07T09:24:49;10.13;;;3.33;;
22260;SDS011;11299;43.202;27.920;2023-05-07T09:27:15;4.28;;;2.45;;
22260;SDS011;11299;43.202;27.920;2023-05-07T09:29:43;5.72;;;2.60;;
22260;SDS011;11299;43.202;27.920;2023-05-07T09:32:09;7.03;;;2.45;;
22260;SDS011;11299;43.202;27.920;2023-05-07T09:34:35;7.05;;;2.90;;
22260;SDS011;11299;43.202;27.920;2023-05-07T09:37:04;6.10;;;3.03;;
22260;SDS011;11299;43.202;27.920;2023-05-07T09:39:47;6.25;;;2.50;;
22260;SDS011;11299;43.202;27.920;2023-05-07T09:42:14;7.00;;;2.60;;
22260;SDS011;11299;43.202;27.920;2023-05-07T09:44:40;5.18;;;2.88;;
22260;SDS011;11299;43.202;27.920;2023-05-07T09:47:08;6.72;;;3.20;;
22260;SDS011;11299;43.202;27.920;2023-05-07T09:49:34;11.45;;;3.47;;
22260;SDS011;11299;43.202;27.920;2023-05-07T09:52:04;6.25;;;3.00;;
22260;SDS011;11299;43.202;27.920;2023-05-07T09:54:32;8.05;;;3.30;;
22260;SDS011;11299;43.202;27.920;2023-05-07T09:56:59;8.40;;;3.38;;
22260;SDS011;11299;43.202;27.920;2023-05-07T09:59:27;12.05;;;4.00;;
22260;SDS011;11299;43.202;27.920;2023-05-07T10:01:53;7.78;;;2.55;;
22260;SDS011;11299;43.202;27.920;2023-05-07T10:04:23;6.25;;;3.30;;
22260;SDS011;11299;43.202;27.920;2023-05-07T10:06:49;8.68;;;3.25;;
22260;SDS011;11299;43.202;27.920;2023-05-07T10:09:15;6.20;;;2.78;;
22260;SDS011;11299;43.202;27.920;2023-05-07T10:11:41;7.32;;;3.92;;
22260;SDS011;11299;43.202;27.920;2023-05-07T10:14:08;8.80;;;3.05;;
22260;SDS011;11299;43.202;27.920;2023-05-07T10:16:35;9.63;;;5.07;;
22260;SDS011;11299;43.202;27.920;2023-05-07T10:19:04;14.27;;;3.60;;
22260;SDS011;11299;43.202;27.920;2023-05-07T10:21:33;13.40;;;5.00;;
22260;SDS011;11299;43.202;27.920;2023-05-07T10:26:38;9.40;;;3.25;;
22260;SDS011;11299;43.202;27.920;2023-05-07T10:29:11;5.13;;;3.20;;
22260;SDS011;11299;43.202;27.920;2023-05-07T10:34:48;8.75;;;3.58;;
22260;SDS011;11299;43.202;27.920;2023-05-07T10:37:16;10.07;;;4.10;;
22260;SDS011;11299;43.202;27.920;2023-05-07T10:39:42;12.93;;;5.03;;
22260;SDS011;11299;43.202;27.920;2023-05-07T10:42:11;12.23;;;4.40;;
22260;SDS011;11299;43.202;27.920;2023-05-07T10:44:37;11.70;;;5.07;;
22260;SDS011;11299;43.202;27.920;2023-05-07T10:47:10;7.88;;;4.15;;
22260;SDS011;11299;43.202;27.920;2023-05-07T10:55:18;8.60;;;3.40;;
22260;SDS011;11299;43.202;27.920;2023-05-07T10:57:40;11.98;;;3.53;;
22260;SDS011;11299;43.202;27.920;2023-05-07T11:00:50;7.05;;;3.15;;
22260;SDS011;11299;43.202;27.920;2023-05-07T11:05:29;8.32;;;3.20;;
22260;SDS011;11299;43.202;27.920;2023-05-07T11:07:57;10.32;;;3.70;;
22260;SDS011;11299;43.202;27.920;2023-05-07T11:10:23;7.97;;;3.30;;
22260;SDS011;11299;43.202;27.920;2023-05-07T11:19:03;6.43;;;3.40;;
22260;SDS011;11299;43.202;27.920;2023-05-07T11:23:58;8.82;;;3.90;;
22260;SDS011;11299;43.202;27.920;2023-05-07T11:26:24;8.90;;;4.28;;
22260;SDS011;11299;43.202;27.920;2023-05-07T11:28:51;6.85;;;3.55;;
22260;SDS011;11299;43.202;27.920;2023-05-07T11:31:20;10.18;;;4.10;;
22260;SDS011;11299;43.202;27.920;2023-05-07T11:33:55;8.70;;;4.00;;
22260;SDS011;11299;43.202;27.920;2023-05-07T11:36:21;14.73;;;4.03;;
22260;SDS011;11299;43.202;27.920;2023-05-07T11:38:48;9.25;;;3.30;;
22260;SDS011;11299;43.202;27.920;2023-05-07T11:41:13;9.65;;;3.65;;
22260;SDS011;11299;43.202;27.920;2023-05-07T11:43:56;5.70;;;3.70;;
22260;SDS011;11299;43.202;27.920;2023-05-07T11:46:22;8.98;;;3.17;;
22260;SDS011;11299;43.202;27.920;2023-05-07T11:48:47;8.30;;;3.70;;
22260;SDS011;11299;43.202;27.920;2023-05-07T11:51:13;7.53;;;3.67;;
22260;SDS011;11299;43.202;27.920;2023-05-07T11:53:44;4.07;;;2.63;;
22260;SDS011;11299;43.202;27.920;2023-05-07T11:56:11;9.77;;;3.53;;
22260;SDS011;11299;43.202;27.920;2023-05-07T11:58:38;9.23;;;3.90;;
22260;SDS011;11299;43.202;27.920;2023-05-07T12:01:06;12.43;;;4.18;;
22260;SDS011;11299;43.202;27.920;2023-05-07T12:03:34;8.52;;;4.00;;
22260;SDS011;11299;43.202;27.920;2023-05-07T12:06:01;7.40;;;3.88;;
22260;SDS011;11299;43.202;27.920;2023-05-07T12:08:26;8.95;;;3.67;;
22260;SDS011;11299;43.202;27.920;2023-05-07T12:10:52;10.15;;;3.17;;
22260;SDS011;11299;43.202;27.920;2023-05-07T12:13:18;5.45;;;3.00;;
22260;SDS011;11299;43.202;27.920;2023-05-07T12:15:45;8.30;;;3.00;;
22260;SDS011;11299;43.202;27.920;2023-05-07T12:18:11;9.93;;;4.25;;
22260;SDS011;11299;43.202;27.920;2023-05-07T12:20:37;11.40;;;3.70;;
22260;SDS011;11299;43.202;27.920;2023-05-07T12:23:04;10.35;;;3.88;;
22260;SDS011;11299;43.202;27.920;2023-05-07T12:25:36;11.70;;;4.03;;
22260;SDS011;11299;43.202;27.920;2023-05-07T12:28:03;10.48;;;4.10;;
22260;SDS011;11299;43.202;27.920;2023-05-07T12:30:32;12.85;;;5.30;;
22260;SDS011;11299;43.202;27.920;2023-05-07T12:33:02;7.78;;;4.47;;
22260;SDS011;11299;43.202;27.920;2023-05-07T12:35:28;12.23;;;4.75;;
22260;SDS011;11299;43.202;27.920;2023-05-07T12:37:55;12.95;;;4.63;;
22260;SDS011;11299;43.202;27.920;2023-05-07T12:40:21;10.27;;;4.22;;
22260;SDS011;11299;43.202;27.920;2023-05-07T12:42:47;15.15;;;3.97;;
22260;SDS011;11299;43.202;27.920;2023-05-07T12:45:20;8.57;;;4.20;;
22260;SDS011;11299;43.202;27.920;2023-05-07T12:47:46;8.68;;;3.72;;
22260;SDS011;11299;43.202;27.920;2023-05-07T12:50:12;9.38;;;3.90;;
22260;SDS011;11299;43.202;27.920;2023-05-07T12:52:39;7.68;;;2.97;;
22260;SDS011;11299;43.202;27.920;2023-05-07T12:55:05;9.48;;;3.50;;
22260;SDS011;11299;43.202;27.920;2023-05-07T12:57:39;13.02;;;3.97;;
22260;SDS011;11299;43.202;27.920;2023-05-07T13:00:07;8.68;;;4.30;;
22260;SDS011;11299;43.202;27.920;2023-05-07T13:02:33;7.55;;;3.17;;
22260;SDS011;11299;43.202;27.920;2023-05-07T13:05:00;7.47;;;3.53;;
22260;SDS011;11299;43.202;27.920;2023-05-07T13:07:26;6.55;;;2.97;;
22260;SDS011;11299;43.202;27.920;2023-05-07T13:09:51;9.73;;;3.65;;
22260;SDS011;11299;43.202;27.920;2023-05-07T13:12:16;8.88;;;3.25;;
22260;SDS011;11299;43.202;27.920;2023-05-07T13:14:42;6.35;;;3.20;;
22260;SDS011;11299;43.202;27.920;2023-05-07T13:17:07;6.75;;;3.28;;
22260;SDS011;11299;43.202;27.920;2023-05-07T13:19:33;7.50;;;3.63;;
22260;SDS011;11299;43.202;27.920;2023-05-07T13:21:58;10.48;;;3.40;;
22260;SDS011;11299;43.202;27.920;2023-05-07T13:24:24;8.32;;;3.78;;
22260;SDS011;11299;43.202;27.920;2023-05-07T13:26:49;8.32;;;3.30;;
22260;SDS011;11299;43.202;27.920;2023-05-07T13:29:15;8.75;;;3.40;;
22260;SDS011;11299;43.202;27.920;2023-05-07T13:31:40;13.10;;;3.58;;
22260;SDS011;11299;43.202;27.920;2023-05-07T13:34:08;7.95;;;3.40;;
22260;SDS011;11299;43.202;27.920;2023-05-07T13:36:34;10.38;;;4.13;;
22260;SDS011;11299;43.202;27.920;2023-05-07T13:39:02;8.63;;;3.70;;
22260;SDS011;11299;43.202;27.920;2023-05-07T13:41:28;9.77;;;3.28;;
22260;SDS011;11299;43.202;27.920;2023-05-07T13:43:54;6.25;;;3.90;;
22260;SDS011;11299;43.202;27.920;2023-05-07T13:46:20;6.75;;;3.00;;
22260;SDS011;11299;43.202;27.920;2023-05-07T13:48:47;8.93;;;3.58;;
22260;SDS011;11299;43.202;27.920;2023-05-07T13:51:12;6.72;;;3.40;;
22260;SDS011;11299;43.202;27.920;2023-05-07T13:53:38;7.63;;;3.40;;
22260;SDS011;11299;43.202;27.920;2023-05-07T13:56:03;6.88;;;3.30;;
22260;SDS011;11299;43.202;27.920;2023-05-07T13:58:29;6.85;;;3.42;;
22260;SDS011;11299;43.202;27.920;2023-05-07T14:00:56;11.55;;;4.30;;
22260;SDS011;11299;43.202;27.920;2023-05-07T14:03:22;10.80;;;3.70;;
22260;SDS011;11299;43.202;27.920;2023-05-07T14:05:47;5.15;;;3.38;;
22260;SDS011;11299;43.202;27.920;2023-05-07T14:08:13;8.30;;;3.28;;
22260;SDS011;11299;43.202;27.920;2023-05-07T14:10:39;7.63;;;3.65;;
22260;SDS011;11299;43.202;27.920;2023-05-07T14:13:05;7.93;;;3.45;;
22260;SDS011;11299;43.202;27.920;2023-05-07T14:15:31;8.98;;;3.40;;
22260;SDS011;11299;43.202;27.920;2023-05-07T14:18:15;9.45;;;3.00;;
22260;SDS011;11299;43.202;27.920;2023-05-07T14:20:41;9.20;;;3.60;;
22260;SDS011;11299;43.202;27.920;2023-05-07T14:23:08;8.23;;;4.00;;
22260;SDS011;11299;43.202;27.920;2023-05-07T14:25:33;10.13;;;3.90;;
22260;SDS011;11299;43.202;27.920;2023-05-07T14:27:59;9.93;;;3.42;;
22260;SDS011;11299;43.202;27.920;2023-05-07T14:30:25;12.63;;;4.03;;
22260;SDS011;11299;43.202;27.920;2023-05-07T14:32:50;11.18;;;3.97;;
22260;SDS011;11299;43.202;27.920;2023-05-07T14:35:16;7.90;;;3.30;;
22260;SDS011;11299;43.202;27.920;2023-05-07T14:37:42;8.68;;;3.58;;
22260;SDS011;11299;43.202;27.920;2023-05-07T14:40:08;6.90;;;3.13;;
22260;SDS011;11299;43.202;27.920;2023-05-07T14:42:34;11.55;;;3.70;;
22260;SDS011;11299;43.202;27.920;2023-05-07T14:44:59;8.52;;;3.53;;
22260;SDS011;11299;43.202;27.920;2023-05-07T14:47:25;5.80;;;3.00;;
22260;SDS011;11299;43.202;27.920;2023-05-07T14:49:50;4.82;;;3.00;;
22260;SDS011;11299;43.202;27.920;2023-05-07T14:52:16;8.55;;;3.53;;